sensor_id;sensor_type;location;lat;lon;timestamp;pressure;altitude;pressure_sealevel;temperature;humidity
52625;BME280;38519;52.540;13.410;2023-05-24T00:01:45;100751.34;;;9.74;100.00
52625;BME280;38519;52.540;13.410;2023-05-24T00:04:10;100750.66;;;9.65;100.00
52625;BME280;38519;52.540;13.410;2023-05-24T00:06:36;100754.16;;;9.65;100.00
52625;BME280;38519;52.540;13.410;2023-05-24T00:09:01;100746.47;;;9.67;100.00
52625;BME280;38519;52.540;13.410;2023-05-24T00:11:27;100750.78;;;9.66;100.00
52625;BME280;38519;52.540;13.410;2023-05-24T00:13:52;100759.25;;;9.64;100.00
52625;BME280;38519;52.540;13.410;2023-05-24T00:16:17;100759.38;;;9.65;100.00
52625;BME280;38519;52.540;13.410;2023-05-24T00:18:42;100765.59;;;9.56;100.00
52625;BME280;38519;52.540;13.410;2023-05-24T00:21:11;100765.94;;;9.60;100.00
52625;BME280;38519;52.540;13.410;2023-05-24T00:23:36;100768.44;;;9.59;100.00
52625;BME280;38519;52.540;13.410;2023-05-24T00:26:02;100761.59;;;9.49;100.00
52625;BME280;38519;52.540;13.410;2023-05-24T00:28:28;100765.22;;;9.51;100.00
52625;BME280;38519;52.540;13.410;2023-05-24T00:30:53;100772.69;;;9.46;100.00
52625;BME280;38519;52.540;13.410;2023-05-24T00:33:18;100769.47;;;9.39;100.00
52625;BME280;38519;52.540;13.410;2023-05-24T00:35:43;100774.19;;;9.55;100.00
52625;BME280;38519;52.540;13.410;2023-05-24T00:38:09;100766.31;;;9.65;100.00
52625;BME280;38519;52.540;13.410;2023-05-24T00:40:34;100759.16;;;9.62;100.00
52625;BME280;38519;52.540;13.410;2023-05-24T00:42:59;100756.41;;;9.61;100.00
52625;BME280;38519;52.540;13.410;2023-05-24T00:45:25;100768.19;;;9.56;100.00
52625;BME280;38519;52.540;13.410;2023-05-24T00:47:50;100767.53;;;9.58;100.00
52625;BME280;38519;52.540;13.410;2023-05-24T00:50:15;100766.19;;;9.63;100.00
52625;BME280;38519;52.540;13.410;2023-05-24T00:52:41;100766.31;;;9.65;100.00
52625;BME280;38519;52.540;13.410;2023-05-24T00:55:06;100765.44;;;9.76;100.00
52625;BME280;38519;52.540;13.410;2023-05-24T00:57:32;100766.53;;;9.68;100.00
52625;BME280;38519;52.540;13.410;2023-05-24T00:59:57;100770.41;;;9.73;100.00
52625;BME280;38519;52.540;13.410;2023-05-24T01:02:23;100763.72;;;9.77;100.00
52625;BME280;38519;52.540;13.410;2023-05-24T01:04:49;100762.59;;;9.73;100.00
52625;BME280;38519;52.540;13.410;2023-05-24T01:17:32;100764.44;;;9.98;100.00
52625;BME280;38519;52.540;13.410;2023-05-24T01:20:02;100769.44;;;9.95;100.00
52625;BME280;38519;52.540;13.410;2023-05-24T01:27:51;100770.34;;;9.95;100.00
52625;BME280;38519;52.540;13.410;2023-05-24T01:30:17;100775.00;;;9.99;100.00
52625;BME280;38519;52.540;13.410;2023-05-24T01:32:44;100769.53;;;9.84;100.00
52625;BME280;38519;52.540;13.410;2023-05-24T01:35:09;100767.94;;;9.87;100.00
52625;BME280;38519;52.540;13.410;2023-05-24T01:37:35;100768.19;;;9.90;100.00
52625;BME280;38519;52.540;13.410;2023-05-24T01:40:00;100768.28;;;9.79;100.00
52625;BME280;38519;52.540;13.410;2023-05-24T01:42:30;100776.88;;;9.78;100.00
52625;BME280;38519;52.540;13.410;2023-05-24T01:45:34;100770.88;;;9.79;100.00
52625;BME280;38519;52.540;13.410;2023-05-24T01:50:36;100768.19;;;9.90;100.00
52625;BME280;38519;52.540;13.410;2023-05-24T01:53:03;100775.88;;;9.88;100.00
52625;BME280;38519;52.540;13.410;2023-05-24T01:55:30;100779.75;;;9.93;100.00
52625;BME280;38519;52.540;13.410;2023-05-24T01:57:57;100773.19;;;9.98;100.00
52625;BME280;38519;52.540;13.410;2023-05-24T02:00:24;100779.84;;;9.95;100.00
52625;BME280;38519;52.540;13.410;2023-05-24T02:02:50;100780.56;;;9.92;100.00
52625;BME280;38519;52.540;13.410;2023-05-24T02:05:15;100778.50;;;9.88;100.00
52625;BME280;38519;52.540;13.410;2023-05-24T02:07:41;100783.09;;;9.80;100.00
52625;BME280;38519;52.540;13.410;2023-05-24T02:10:06;100777.66;;;9.77;100.00
52625;BME280;38519;52.540;13.410;2023-05-24T02:12:32;100773.91;;;9.74;100.00
52625;BME280;38519;52.540;13.410;2023-05-24T02:14:57;100769.59;;;9.74;100.00
52625;BME280;38519;52.540;13.410;2023-05-24T02:17:22;100775.41;;;9.82;100.00
52625;BME280;38519;52.540;13.410;2023-05-24T02:19:49;100773.97;;;9.86;100.00
52625;BME280;38519;52.540;13.410;2023-05-24T02:22:15;100775.00;;;9.88;100.00
52625;BME280;38519;52.540;13.410;2023-05-24T02:24:40;100777.91;;;9.80;100.00
52625;BME280;38519;52.540;13.410;2023-05-24T02:27:05;100778.94;;;9.82;100.00
52625;BME280;38519;52.540;13.410;2023-05-24T02:29:31;100771.91;;;9.81;100.00
52625;BME280;38519;52.540;13.410;2023-05-24T02:31:56;100769.50;;;9.73;100.00
52625;BME280;38519;52.540;13.410;2023-05-24T02:34:21;100771.25;;;9.84;100.00
52625;BME280;38519;52.540;13.410;2023-05-24T02:36:47;100770.06;;;9.80;100.00
52625;BME280;38519;52.540;13.410;2023-05-24T02:39:13;100769.59;;;9.74;100.00
52625;BME280;38519;52.540;13.410;2023-05-24T02:41:38;100771.91;;;9.81;100.00
52625;BME280;38519;52.540;13.410;2023-05-24T02:44:03;100772.06;;;9.61;100.00
52625;BME280;38519;52.540;13.410;2023-05-24T02:46:29;100772.13;;;9.73;100.00
52625;BME280;38519;52.540;13.410;2023-05-24T02:48:54;100766.31;;;9.65;100.00
52625;BME280;38519;52.540;13.410;2023-05-24T02:51:19;100763.84;;;9.78;100.00
52625;BME280;38519;52.540;13.410;2023-05-24T02:53:45;100770.72;;;9.66;100.00
52625;BME280;38519;52.540;13.410;2023-05-24T02:56:10;100764.69;;;9.55;100.00
52625;BME280;38519;52.540;13.410;2023-05-24T02:58:37;100775.63;;;9.73;100.00
52625;BME280;38519;52.540;13.410;2023-05-24T03:01:04;100773.69;;;9.71;100.00
52625;BME280;38519;52.540;13.410;2023-05-24T03:03:29;100778.22;;;9.73;100.00
52625;BME280;38519;52.540;13.410;2023-05-24T03:05:55;100776.63;;;9.63;100.00
52625;BME280;38519;52.540;13.410;2023-05-24T03:08:20;100769.28;;;9.70;100.00
52625;BME280;38519;52.540;13.410;2023-05-24T03:10:45;100770.16;;;9.70;100.00
52625;BME280;38519;52.540;13.410;2023-05-24T03:13:10;100776.63;;;9.63;100.00
52625;BME280;38519;52.540;13.410;2023-05-24T03:15:36;100779.34;;;9.65;100.00
52625;BME280;38519;52.540;13.410;2023-05-24T03:18:01;100774.78;;;9.62;100.00
52625;BME280;38519;52.540;13.410;2023-05-24T03:20:26;100773.66;;;9.59;100.00
52625;BME280;38519;52.540;13.410;2023-05-24T03:22:52;100776.66;;;9.53;100.00
52625;BME280;38519;52.540;13.410;2023-05-24T03:25:17;100782.72;;;9.64;100.00
52625;BME280;38519;52.540;13.410;2023-05-24T03:27:42;100777.97;;;9.58;100.00
52625;BME280;38519;52.540;13.410;2023-05-24T03:30:08;100785.22;;;9.62;100.00
52625;BME280;38519;52.540;13.410;2023-05-24T03:32:33;100787.81;;;9.62;100.00
52625;BME280;38519;52.540;13.410;2023-05-24T03:34:58;100782.97;;;9.45;100.00
52625;BME280;38519;52.540;13.410;2023-05-24T03:37:25;100783.78;;;9.44;100.00
52625;BME280;38519;52.540;13.410;2023-05-24T03:39:50;100784.72;;;9.56;100.00
52625;BME280;38519;52.540;13.410;2023-05-24T03:42:16;100782.59;;;9.62;100.00
52625;BME280;38519;52.540;13.410;2023-05-24T03:44:42;100786.56;;;9.57;100.00
52625;BME280;38519;52.540;13.410;2023-05-24T03:47:07;100786.56;;;9.57;100.00
52625;BME280;38519;52.540;13.410;2023-05-24T03:49:33;100787.22;;;9.55;100.00
52625;BME280;38519;52.540;13.410;2023-05-24T03:51:58;100788.28;;;9.57;100.00
52625;BME280;38519;52.540;13.410;2023-05-24T03:54:23;100789.53;;;9.62;100.00
52625;BME280;38519;52.540;13.410;2023-05-24T03:56:48;100790.91;;;9.69;100.00
52625;BME280;38519;52.540;13.410;2023-05-24T03:59:14;100808.50;;;9.71;100.00
52625;BME280;38519;52.540;13.410;2023-05-24T04:01:39;100807.34;;;9.68;100.00
52625;BME280;38519;52.540;13.410;2023-05-24T04:04:04;100803.78;;;9.55;100.00
52625;BME280;38519;52.540;13.410;2023-05-24T04:06:30;100797.22;;;9.60;100.00
52625;BME280;38519;52.540;13.410;2023-05-24T04:08:55;100803.34;;;9.61;100.00
52625;BME280;38519;52.540;13.410;2023-05-24T04:11:21;100804.59;;;9.66;100.00
52625;BME280;38519;52.540;13.410;2023-05-24T04:13:47;100811.31;;;9.74;100.00
52625;BME280;38519;52.540;13.410;2023-05-24T04:16:12;100810.88;;;9.68;100.00
52625;BME280;38519;52.540;13.410;2023-05-24T04:18:38;100806.75;;;9.60;100.00
52625;BME280;38519;52.540;13.410;2023-05-24T04:21:03;100811.78;;;9.69;100.00
52625;BME280;38519;52.540;13.410;2023-05-24T04:23:30;100815.28;;;9.69;100.00
52625;BME280;38519;52.540;13.410;2023-05-24T04:25:55;100815.28;;;9.69;100.00
52625;BME280;38519;52.540;13.410;2023-05-24T04:28:20;100811.97;;;9.60;100.00
52625;BME280;38519;52.540;13.410;2023-05-24T04:30:46;100815.03;;;9.66;100.00
52625;BME280;38519;52.540;13.410;2023-05-24T04:33:12;100814.50;;;9.70;100.00
52625;BME280;38519;52.540;13.410;2023-05-24T04:35:38;100816.09;;;9.68;100.00
52625;BME280;38519;52.540;13.410;2023-05-24T04:38:04;100819.00;;;9.61;100.00
52625;BME280;38519;52.540;13.410;2023-05-24T04:40:29;100819.22;;;9.64;100.00
52625;BME280;38519;52.540;13.410;2023-05-24T04:42:55;100819.06;;;9.73;100.00
52625;BME280;38519;52.540;13.410;2023-05-24T04:45:20;100825.66;;;9.79;100.00
52625;BME280;38519;52.540;13.410;2023-05-24T04:47:46;100831.56;;;9.89;100.00
52625;BME280;38519;52.540;13.410;2023-05-24T04:50:11;100826.34;;;9.89;100.00
52625;BME280;38519;52.540;13.410;2023-05-24T04:52:36;100833.97;;;9.86;100.00
52625;BME280;38519;52.540;13.410;2023-05-24T04:55:02;100838.19;;;9.95;100.00
52625;BME280;38519;52.540;13.410;2023-05-24T04:57:27;100840.91;;;9.97;100.00
52625;BME280;38519;52.540;13.410;2023-05-24T04:59:53;100849.94;;;9.90;100.00
52625;BME280;38519;52.540;13.410;2023-05-24T05:02:18;100846.38;;;10.00;100.00
52625;BME280;38519;52.540;13.410;2023-05-24T05:04:43;100848.63;;;10.07;100.00
52625;BME280;38519;52.540;13.410;2023-05-24T05:07:08;100848.03;;;9.99;100.00
52625;BME280;38519;52.540;13.410;2023-05-24T05:09:35;100846.75;;;9.82;100.00
52625;BME280;38519;52.540;13.410;2023-05-24T05:12:00;100854.81;;;9.86;100.00
52625;BME280;38519;52.540;13.410;2023-05-24T05:14:25;100855.78;;;9.76;100.00
52625;BME280;38519;52.540;13.410;2023-05-24T05:16:50;100864.03;;;9.70;100.00
52625;BME280;38519;52.540;13.410;2023-05-24T05:19:16;100864.28;;;9.73;100.00
52625;BME280;38519;52.540;13.410;2023-05-24T05:21:41;100862.69;;;9.75;100.00
52625;BME280;38519;52.540;13.410;2023-05-24T05:24:06;100863.91;;;9.69;100.00
52625;BME280;38519;52.540;13.410;2023-05-24T05:26:32;100867.63;;;9.82;100.00
52625;BME280;38519;52.540;13.410;2023-05-24T05:28:57;100869.28;;;9.82;100.00
52625;BME280;38519;52.540;13.410;2023-05-24T05:31:22;100867.63;;;9.82;100.00
52625;BME280;38519;52.540;13.410;2023-05-24T05:33:49;100879.47;;;9.79;100.00
52625;BME280;38519;52.540;13.410;2023-05-24T05:36:14;100878.34;;;9.75;100.00
52625;BME280;38519;52.540;13.410;2023-05-24T05:38:40;100875.50;;;9.72;100.00
52625;BME280;38519;52.540;13.410;2023-05-24T05:41:05;100887.75;;;9.73;100.00
52625;BME280;38519;52.540;13.410;2023-05-24T05:43:31;100877.56;;;9.76;100.00
52625;BME280;38519;52.540;13.410;2023-05-24T05:45:56;100892.00;;;9.83;100.00
52625;BME280;38519;52.540;13.410;2023-05-24T05:48:21;100892.16;;;9.74;100.00
52625;BME280;38519;52.540;13.410;2023-05-24T05:50:47;100890.41;;;9.85;100.00
52625;BME280;38519;52.540;13.410;2023-05-24T05:53:12;100898.84;;;9.93;100.00
52625;BME280;38519;52.540;13.410;2023-05-24T05:55:37;100906.91;;;9.96;100.00
52625;BME280;38519;52.540;13.410;2023-05-24T05:58:02;100893.19;;;9.98;100.00
52625;BME280;38519;52.540;13.410;2023-05-24T06:00:27;100897.84;;;10.02;100.00
52625;BME280;38519;52.540;13.410;2023-05-24T06:02:53;100902.31;;;10.15;100.00
52625;BME280;38519;52.540;13.410;2023-05-24T06:05:18;100891.53;;;10.11;100.00
52625;BME280;38519;52.540;13.410;2023-05-24T06:07:43;100899.47;;;10.12;100.00
52625;BME280;38519;52.540;13.410;2023-05-24T06:10:10;100890.06;;;10.14;100.00
52625;BME280;38519;52.540;13.410;2023-05-24T06:12:35;100899.53;;;10.24;100.00
52625;BME280;38519;52.540;13.410;2023-05-24T06:15:02;100899.41;;;10.23;100.00
52625;BME280;38519;52.540;13.410;2023-05-24T06:17:30;100909.44;;;10.40;100.00
52625;BME280;38519;52.540;13.410;2023-05-24T06:19:55;100905.50;;;10.45;100.00
52625;BME280;38519;52.540;13.410;2023-05-24T06:22:21;100915.97;;;10.57;100.00
52625;BME280;38519;52.540;13.410;2023-05-24T06:24:46;100924.69;;;10.46;100.00
52625;BME280;38519;52.540;13.410;2023-05-24T06:27:13;100917.50;;;10.43;100.00
52625;BME280;38519;52.540;13.410;2023-05-24T06:29:38;100921.84;;;10.43;100.00
52625;BME280;38519;52.540;13.410;2023-05-24T06:32:03;100922.44;;;10.50;100.00
52625;BME280;38519;52.540;13.410;2023-05-24T06:34:29;100912.69;;;10.60;100.00
52625;BME280;38519;52.540;13.410;2023-05-24T06:36:54;100913.94;;;10.65;100.00
52625;BME280;38519;52.540;13.410;2023-05-24T06:39:19;100916.22;;;10.72;100.00
52625;BME280;38519;52.540;13.410;2023-05-24T06:41:44;100917.16;;;10.72;100.00
52625;BME280;38519;52.540;13.410;2023-05-24T06:44:11;100922.78;;;10.67;100.00
52625;BME280;38519;52.540;13.410;2023-05-24T06:46:36;100922.59;;;10.75;100.00
52625;BME280;38519;52.540;13.410;2023-05-24T06:49:01;100934.38;;;10.70;100.00
52625;BME280;38519;52.540;13.410;2023-05-24T06:51:27;100937.72;;;10.91;100.00
52625;BME280;38519;52.540;13.410;2023-05-24T06:53:52;100942.25;;;10.94;100.00
52625;BME280;38519;52.540;13.410;2023-05-24T06:56:18;100952.38;;;11.01;100.00
52625;BME280;38519;52.540;13.410;2023-05-24T06:58:43;100945.75;;;10.94;100.00
52625;BME280;38519;52.540;13.410;2023-05-24T07:01:08;100948.97;;;10.90;100.00
52625;BME280;38519;52.540;13.410;2023-05-24T07:03:36;100949.75;;;10.78;100.00
52625;BME280;38519;52.540;13.410;2023-05-24T07:06:01;100942.81;;;10.78;100.00
52625;BME280;38519;52.540;13.410;2023-05-24T07:08:27;100949.28;;;10.71;100.00
52625;BME280;38519;52.540;13.410;2023-05-24T07:10:52;100953.00;;;10.75;100.00
52625;BME280;38519;52.540;13.410;2023-05-24T07:13:18;100952.69;;;10.82;100.00
52625;BME280;38519;52.540;13.410;2023-05-24T07:15:44;100947.38;;;10.92;100.00
52625;BME280;38519;52.540;13.410;2023-05-24T07:18:10;100956.91;;;11.04;100.00
52625;BME280;38519;52.540;13.410;2023-05-24T07:20:36;100959.44;;;11.14;100.00
52625;BME280;38519;52.540;13.410;2023-05-24T07:23:01;100965.22;;;11.34;100.00
52625;BME280;38519;52.540;13.410;2023-05-24T07:25:27;100962.25;;;11.41;100.00
52625;BME280;38519;52.540;13.410;2023-05-24T07:27:53;100970.78;;;11.38;100.00
52625;BME280;38519;52.540;13.410;2023-05-24T07:30:18;100969.09;;;11.27;100.00
52625;BME280;38519;52.540;13.410;2023-05-24T07:32:44;100969.75;;;11.24;100.00
52625;BME280;38519;52.540;13.410;2023-05-24T07:35:10;100972.72;;;11.41;100.00
52625;BME280;38519;52.540;13.410;2023-05-24T07:37:37;100974.06;;;11.47;100.00
52625;BME280;38519;52.540;13.410;2023-05-24T07:40:02;100979.09;;;11.44;100.00
52625;BME280;38519;52.540;13.410;2023-05-24T07:42:29;100983.19;;;11.53;100.00
52625;BME280;38519;52.540;13.410;2023-05-24T07:44:55;100980.91;;;11.57;100.00
52625;BME280;38519;52.540;13.410;2023-05-24T07:47:20;100985.91;;;11.54;100.00
52625;BME280;38519;52.540;13.410;2023-05-24T07:49:47;100989.41;;;11.78;100.00
52625;BME280;38519;52.540;13.410;2023-05-24T07:52:12;100988.69;;;11.81;100.00
52625;BME280;38519;52.540;13.410;2023-05-24T07:54:38;100984.13;;;11.90;100.00
52625;BME280;38519;52.540;13.410;2023-05-24T07:57:03;100993.34;;;12.09;100.00
52625;BME280;38519;52.540;13.410;2023-05-24T07:59:29;100994.28;;;11.97;100.00
52625;BME280;38519;52.540;13.410;2023-05-24T08:01:55;101006.22;;;11.82;100.00
52625;BME280;38519;52.540;13.410;2023-05-24T08:04:25;101003.41;;;11.67;100.00
52625;BME280;38519;52.540;13.410;2023-05-24T08:06:50;101004.06;;;11.64;100.00
52625;BME280;38519;52.540;13.410;2023-05-24T08:09:15;101002.25;;;11.75;100.00
52625;BME280;38519;52.540;13.410;2023-05-24T08:11:41;100997.78;;;11.86;100.00
52625;BME280;38519;52.540;13.410;2023-05-24T08:14:07;101000.50;;;11.88;100.00
52625;BME280;38519;52.540;13.410;2023-05-24T08:16:33;100995.81;;;11.46;100.00
52625;BME280;38519;52.540;13.410;2023-05-24T08:18:58;101000.78;;;11.67;100.00
52625;BME280;38519;52.540;13.410;2023-05-24T08:21:23;101008.16;;;11.84;100.00
52625;BME280;38519;52.540;13.410;2023-05-24T08:23:48;101011.78;;;11.75;100.00
52625;BME280;38519;52.540;13.410;2023-05-24T08:26:15;101008.63;;;11.55;100.00
52625;BME280;38519;52.540;13.410;2023-05-24T08:28:43;101008.97;;;11.60;100.00
52625;BME280;38519;52.540;13.410;2023-05-24T08:31:08;101012.19;;;11.56;100.00
52625;BME280;38519;52.540;13.410;2023-05-24T08:33:33;101018.19;;;11.55;100.00
52625;BME280;38519;52.540;13.410;2023-05-24T08:35:58;101008.50;;;11.54;100.00
52625;BME280;38519;52.540;13.410;2023-05-24T08:38:24;101016.25;;;11.52;100.00
52625;BME280;38519;52.540;13.410;2023-05-24T08:40:49;101016.81;;;11.60;100.00
52625;BME280;38519;52.540;13.410;2023-05-24T08:43:14;101018.63;;;11.49;100.00
52625;BME280;38519;52.540;13.410;2023-05-24T08:45:40;101021.59;;;11.54;100.00
52625;BME280;38519;52.540;13.410;2023-05-24T08:48:06;101017.28;;;11.66;100.00
52625;BME280;38519;52.540;13.410;2023-05-24T08:50:32;101019.63;;;11.98;100.00
52625;BME280;38519;52.540;13.410;2023-05-24T08:52:58;101019.06;;;12.02;100.00
52625;BME280;38519;52.540;13.410;2023-05-24T08:55:23;101022.03;;;12.07;100.00
52625;BME280;38519;52.540;13.410;2023-05-24T08:57:49;101037.47;;;12.16;100.00
52625;BME280;38519;52.540;13.410;2023-05-24T09:00:14;101032.13;;;12.14;100.00
52625;BME280;38519;52.540;13.410;2023-05-24T09:02:41;101036.69;;;12.17;100.00
52625;BME280;38519;52.540;13.410;2023-05-24T09:05:15;101040.41;;;12.20;100.00
52625;BME280;38519;52.540;13.410;2023-05-24T09:07:42;101042.97;;;12.07;100.00
52625;BME280;38519;52.540;13.410;2023-05-24T09:10:08;101042.03;;;12.18;100.00
52625;BME280;38519;52.540;13.410;2023-05-24T09:12:33;101053.25;;;12.29;100.00
52625;BME280;38519;52.540;13.410;2023-05-24T09:15:00;101045.41;;;12.54;100.00
52625;BME280;38519;52.540;13.410;2023-05-24T09:17:26;101044.72;;;12.57;100.00
52625;BME280;38519;52.540;13.410;2023-05-24T09:19:52;101040.75;;;12.75;98.42
52625;BME280;38519;52.540;13.410;2023-05-24T09:22:17;101039.78;;;12.87;98.85
52625;BME280;38519;52.540;13.410;2023-05-24T09:24:47;101040.56;;;13.11;94.33
52625;BME280;38519;52.540;13.410;2023-05-24T09:27:16;101040.88;;;13.16;94.79
52625;BME280;38519;52.540;13.410;2023-05-24T09:29:42;101041.78;;;13.16;94.02
52625;BME280;38519;52.540;13.410;2023-05-24T09:32:10;101038.97;;;13.13;94.86
52625;BME280;38519;52.540;13.410;2023-05-24T09:34:39;101044.91;;;13.24;94.99
52625;BME280;38519;52.540;13.410;2023-05-24T09:37:04;101041.97;;;13.19;96.14
52625;BME280;38519;52.540;13.410;2023-05-24T09:39:31;101041.97;;;13.19;95.50
52625;BME280;38519;52.540;13.410;2023-05-24T09:41:56;101036.25;;;13.11;94.11
52625;BME280;38519;52.540;13.410;2023-05-24T09:44:25;101049.91;;;12.94;95.41
52625;BME280;38519;52.540;13.410;2023-05-24T09:47:00;101045.31;;;13.17;92.64
52625;BME280;38519;52.540;13.410;2023-05-24T09:49:25;101043.78;;;13.07;91.57
52625;BME280;38519;52.540;13.410;2023-05-24T09:51:51;101046.19;;;13.04;89.54
52625;BME280;38519;52.540;13.410;2023-05-24T09:54:16;101055.66;;;12.63;93.08
52625;BME280;38519;52.540;13.410;2023-05-24T09:56:43;101053.94;;;12.89;92.24
52625;BME280;38519;52.540;13.410;2023-05-24T09:59:10;101053.25;;;13.05;90.85
52625;BME280;38519;52.540;13.410;2023-05-24T10:01:35;101059.31;;;13.04;91.31
52625;BME280;38519;52.540;13.410;2023-05-24T10:04:01;101057.13;;;13.23;89.86
52625;BME280;38519;52.540;13.410;2023-05-24T10:06:28;101065.31;;;13.28;86.89
52625;BME280;38519;52.540;13.410;2023-05-24T10:08:56;101067.28;;;13.44;88.37
52625;BME280;38519;52.540;13.410;2023-05-24T10:11:22;101069.59;;;13.39;88.46
52625;BME280;38519;52.540;13.410;2023-05-24T10:13:48;101074.75;;;13.51;85.31
52625;BME280;38519;52.540;13.410;2023-05-24T10:16:14;101063.34;;;13.37;88.41
52625;BME280;38519;52.540;13.410;2023-05-24T10:18:40;101064.31;;;13.26;87.58
52625;BME280;38519;52.540;13.410;2023-05-24T10:21:05;101060.94;;;13.15;90.25
52625;BME280;38519;52.540;13.410;2023-05-24T10:23:35;101059.94;;;13.52;89.37
52625;BME280;38519;52.540;13.410;2023-05-24T10:26:06;101060.31;;;13.84;88.29
52625;BME280;38519;52.540;13.410;2023-05-24T10:28:54;101063.84;;;13.98;88.34
52625;BME280;38519;52.540;13.410;2023-05-24T10:31:21;101058.91;;;14.45;86.87
52625;BME280;38519;52.540;13.410;2023-05-24T10:33:47;101063.59;;;14.64;83.92
52625;BME280;38519;52.540;13.410;2023-05-24T10:36:15;101072.69;;;14.69;83.90
52625;BME280;38519;52.540;13.410;2023-05-24T10:38:41;101066.59;;;14.70;85.06
52625;BME280;38519;52.540;13.410;2023-05-24T10:41:07;101067.84;;;14.90;81.13
52625;BME280;38519;52.540;13.410;2023-05-24T10:43:36;101066.56;;;14.83;81.58
52625;BME280;38519;52.540;13.410;2023-05-24T10:46:02;101063.66;;;14.79;85.55
52625;BME280;38519;52.540;13.410;2023-05-24T10:48:30;101065.72;;;14.84;83.76
52625;BME280;38519;52.540;13.410;2023-05-24T10:50:56;101068.38;;;14.43;87.53
52625;BME280;38519;52.540;13.410;2023-05-24T10:53:25;101076.38;;;14.44;87.72
52625;BME280;38519;52.540;13.410;2023-05-24T10:55:58;101074.03;;;14.49;86.05
52625;BME280;38519;52.540;13.410;2023-05-24T10:58:27;101079.84;;;14.30;87.18
52625;BME280;38519;52.540;13.410;2023-05-24T11:01:23;101080.31;;;13.82;88.66
52625;BME280;38519;52.540;13.410;2023-05-24T11:03:48;101082.03;;;13.69;90.09
52625;BME280;38519;52.540;13.410;2023-05-24T11:06:14;101075.16;;;13.57;91.15
52625;BME280;38519;52.540;13.410;2023-05-24T11:08:40;101081.91;;;13.67;90.19
52625;BME280;38519;52.540;13.410;2023-05-24T11:11:08;101068.28;;;13.33;90.49
52625;BME280;38519;52.540;13.410;2023-05-24T11:13:35;101076.03;;;13.06;92.61
52625;BME280;38519;52.540;13.410;2023-05-24T11:16:01;101066.38;;;12.80;95.37
52625;BME280;38519;52.540;13.410;2023-05-24T11:18:26;101069.91;;;13.05;93.10
52625;BME280;38519;52.540;13.410;2023-05-24T11:20:51;101072.66;;;13.20;92.01
52625;BME280;38519;52.540;13.410;2023-05-24T11:23:17;101070.63;;;13.16;93.30
52625;BME280;38519;52.540;13.410;2023-05-24T11:25:44;101075.25;;;13.45;91.85
52625;BME280;38519;52.540;13.410;2023-05-24T11:28:11;101077.25;;;13.50;91.53
52625;BME280;38519;52.540;13.410;2023-05-24T11:30:43;101074.44;;;13.73;89.24
52625;BME280;38519;52.540;13.410;2023-05-24T11:33:18;101077.06;;;14.00;88.21
52625;BME280;38519;52.540;13.410;2023-05-24T11:35:44;101070.22;;;14.44;85.54
52625;BME280;38519;52.540;13.410;2023-05-24T11:38:10;101077.56;;;14.63;84.26
52625;BME280;38519;52.540;13.410;2023-05-24T11:40:37;101074.75;;;14.46;85.10
52625;BME280;38519;52.540;13.410;2023-05-24T11:43:08;101076.44;;;14.59;86.60
52625;BME280;38519;52.540;13.410;2023-05-24T11:45:33;101073.44;;;14.81;83.24
52625;BME280;38519;52.540;13.410;2023-05-24T11:48:02;101083.56;;;14.75;84.84
52625;BME280;38519;52.540;13.410;2023-05-24T11:50:28;101082.88;;;14.92;79.99
52625;BME280;38519;52.540;13.410;2023-05-24T11:52:53;101082.69;;;14.89;82.07
52625;BME280;38519;52.540;13.410;2023-05-24T11:55:24;101077.53;;;14.21;85.46
52625;BME280;38519;52.540;13.410;2023-05-24T11:57:50;101084.44;;;14.19;85.93
52625;BME280;38519;52.540;13.410;2023-05-24T12:00:27;101080.38;;;14.24;84.78
52625;BME280;38519;52.540;13.410;2023-05-24T12:02:56;101076.25;;;14.56;84.00
52625;BME280;38519;52.540;13.410;2023-05-24T12:05:22;101082.78;;;14.91;84.19
52625;BME280;38519;52.540;13.410;2023-05-24T12:07:49;101081.19;;;15.08;84.18
52625;BME280;38519;52.540;13.410;2023-05-24T12:10:23;101084.91;;;14.97;82.04
52625;BME280;38519;52.540;13.410;2023-05-24T12:12:48;101086.66;;;14.83;84.38
52625;BME280;38519;52.540;13.410;2023-05-24T12:15:14;101095.88;;;14.61;84.82
52625;BME280;38519;52.540;13.410;2023-05-24T12:17:39;101091.69;;;14.10;89.99
52625;BME280;38519;52.540;13.410;2023-05-24T12:20:05;101092.19;;;14.04;90.44
52625;BME280;38519;52.540;13.410;2023-05-24T12:22:31;101088.28;;;13.84;92.19
52625;BME280;38519;52.540;13.410;2023-05-24T12:24:56;101094.13;;;13.80;92.08
52625;BME280;38519;52.540;13.410;2023-05-24T12:27:25;101096.06;;;13.82;93.66
52625;BME280;38519;52.540;13.410;2023-05-24T12:29:51;101098.19;;;14.01;89.71
52625;BME280;38519;52.540;13.410;2023-05-24T12:32:16;101093.81;;;14.02;90.73
52625;BME280;38519;52.540;13.410;2023-05-24T12:34:42;101090.47;;;14.18;90.81
52625;BME280;38519;52.540;13.410;2023-05-24T12:37:08;101085.72;;;14.12;89.57
52625;BME280;38519;52.540;13.410;2023-05-24T12:39:34;101090.53;;;14.33;87.05
52625;BME280;38519;52.540;13.410;2023-05-24T12:42:00;101094.75;;;14.44;86.56
52625;BME280;38519;52.540;13.410;2023-05-24T12:44:29;101090.53;;;14.46;86.67
52625;BME280;38519;52.540;13.410;2023-05-24T12:46:55;101092.53;;;14.50;89.11
52625;BME280;38519;52.540;13.410;2023-05-24T12:49:21;101093.56;;;14.81;86.30
52625;BME280;38519;52.540;13.410;2023-05-24T12:51:47;101086.66;;;14.83;85.21